createdAt,value
2019-05-03T00:02:28.067Z,99.90
2019-05-03T00:05:27.256Z,99.90
2019-05-03T00:08:07.168Z,99.90
2019-05-03T00:10:37.976Z,99.90
2019-05-03T00:13:09.127Z,99.90
2019-05-03T00:16:03.037Z,99.90
2019-05-03T00:18:32.815Z,99.90
2019-05-03T00:21:02.587Z,99.90
2019-05-03T00:23:32.546Z,99.90
2019-05-03T00:26:02.678Z,99.90
2019-05-03T00:28:32.276Z,99.90
2019-05-03T00:31:01.991Z,99.90
2019-05-03T00:33:31.882Z,99.90
2019-05-03T00:36:22.171Z,99.90
2019-05-03T00:38:53.621Z,99.90
2019-05-03T00:41:24.337Z,99.90
2019-05-03T00:43:53.813Z,99.90
2019-05-03T00:46:23.222Z,99.90
2019-05-03T00:48:53.232Z,99.90
2019-05-03T00:51:22.717Z,99.90
2019-05-03T00:53:53.041Z,99.90
2019-05-03T00:56:22.786Z,99.90
2019-05-03T00:59:02.049Z,99.90
2019-05-03T01:01:32.045Z,99.90
2019-05-03T01:04:01.885Z,99.90
2019-05-03T01:06:31.860Z,99.90
2019-05-03T01:09:02.641Z,99.90
2019-05-03T01:11:32.613Z,99.90
2019-05-03T01:14:02.618Z,99.90
2019-05-03T01:16:32.198Z,99.90
2019-05-03T01:19:02.590Z,99.90
2019-05-03T01:21:32.479Z,99.90
2019-05-03T01:24:01.945Z,99.90
2019-05-03T01:26:31.934Z,99.90
2019-05-03T01:29:02.748Z,99.90
2019-05-03T01:31:32.356Z,99.90
2019-05-03T01:34:02.333Z,99.90
2019-05-03T01:36:32.422Z,99.90
2019-05-03T01:39:02.205Z,99.90
2019-05-03T01:41:32.342Z,99.90
2019-05-03T01:44:02.155Z,99.90
2019-05-03T01:46:31.693Z,99.90
2019-05-03T01:49:18.330Z,99.90
2019-05-03T01:52:05.589Z,99.90
2019-05-03T01:54:35.133Z,99.90
2019-05-03T01:57:04.672Z,99.90
2019-05-03T01:59:34.101Z,99.90
2019-05-03T02:02:23.082Z,99.90
2019-05-03T02:05:12.062Z,99.90
2019-05-03T02:07:42.237Z,99.90
2019-05-03T02:10:12.339Z,99.90
2019-05-03T02:12:41.842Z,99.90
2019-05-03T02:15:12.058Z,99.90
2019-05-03T02:17:42.730Z,99.90
2019-05-03T02:20:12.733Z,99.90
2019-05-03T02:22:42.893Z,99.90
2019-05-03T02:25:12.702Z,99.90
2019-05-03T02:27:42.453Z,99.90
2019-05-03T02:30:14.448Z,99.90
2019-05-03T02:32:44.431Z,99.90
2019-05-03T02:35:14.307Z,99.90
2019-05-03T02:37:45.749Z,99.90
2019-05-03T02:40:20.203Z,99.90
2019-05-03T02:43:06.995Z,99.90
2019-05-03T02:45:42.546Z,99.90
2019-05-03T02:48:20.428Z,99.90
2019-05-03T02:50:49.962Z,99.90
2019-05-03T02:53:20.060Z,99.90
2019-05-03T02:55:49.940Z,99.90
2019-05-03T02:58:19.413Z,99.90
2019-05-03T03:00:57.261Z,99.90
2019-05-03T03:03:28.464Z,99.90
2019-05-03T03:05:59.516Z,99.90
2019-05-03T03:08:33.261Z,99.90
2019-05-03T03:11:06.257Z,99.90
2019-05-03T03:13:37.158Z,99.90
2019-05-03T03:16:08.252Z,99.90
2019-05-03T03:18:39.281Z,99.90
2019-05-03T03:21:16.090Z,99.90
2019-05-03T03:23:49.927Z,99.90
2019-05-03T03:26:34.455Z,99.90
2019-05-03T03:28:56.389Z,99.90
2019-05-03T03:31:37.844Z,99.90
2019-05-03T03:34:08.885Z,99.90
2019-05-03T03:36:58.888Z,99.90
2019-05-03T03:39:17.006Z,99.90
2019-05-03T03:41:47.448Z,99.90
2019-05-03T03:44:19.336Z,99.90
2019-05-03T03:46:50.692Z,99.90
2019-05-03T03:49:21.173Z,99.90
2019-05-03T03:51:52.764Z,99.90
2019-05-03T03:54:22.868Z,99.90
2019-05-03T03:57:03.860Z,99.90
2019-05-03T03:59:28.474Z,99.90
2019-05-03T04:01:58.594Z,99.90
2019-05-03T04:04:29.487Z,99.90
2019-05-03T04:07:01.308Z,99.90
2019-05-03T04:09:30.115Z,99.90
2019-05-03T04:11:59.543Z,99.90
2019-05-03T04:14:36.156Z,99.90
2019-05-03T04:17:26.166Z,99.90
2019-05-03T04:19:57.185Z,99.90
2019-05-03T04:22:26.660Z,99.90
2019-05-03T04:24:57.745Z,99.90
2019-05-03T04:27:27.911Z,99.90
2019-05-03T04:29:57.946Z,99.90
2019-05-03T04:32:29.038Z,99.90
2019-05-03T04:34:58.740Z,99.90
2019-05-03T04:37:28.408Z,99.90
2019-05-03T04:40:00.003Z,99.90
2019-05-03T04:42:29.460Z,99.90
2019-05-03T04:44:59.147Z,99.90
2019-05-03T04:47:28.626Z,99.90
2019-05-03T04:49:58.115Z,99.90
2019-05-03T04:52:27.810Z,99.90
2019-05-03T04:54:59.164Z,99.90
2019-05-03T04:57:40.016Z,99.90
2019-05-03T04:59:59.727Z,99.90
2019-05-03T05:02:30.115Z,99.90
2019-05-03T05:04:59.831Z,99.90
2019-05-03T05:07:29.285Z,99.90
2019-05-03T05:09:58.865Z,99.90
2019-05-03T05:12:28.348Z,99.90
2019-05-03T05:14:57.795Z,99.90
2019-05-03T05:17:52.267Z,99.90
2019-05-03T05:20:28.548Z,99.90
2019-05-03T05:22:58.050Z,99.90
2019-05-03T05:25:29.542Z,99.90
2019-05-03T05:28:20.175Z,99.90
2019-05-03T05:30:49.810Z,99.90
2019-05-03T05:33:22.571Z,99.90
2019-05-03T05:35:54.534Z,99.90
2019-05-03T05:38:25.590Z,99.90
2019-05-03T05:40:55.587Z,99.90
2019-05-03T05:43:26.456Z,99.90
2019-05-03T05:45:58.955Z,99.90
2019-05-03T05:48:40.152Z,99.90
2019-05-03T05:51:09.680Z,99.90
2019-05-03T05:53:39.156Z,99.90
2019-05-03T05:56:26.362Z,99.90
2019-05-03T05:59:20.825Z,99.90
2019-05-03T06:01:55.737Z,99.90
2019-05-03T06:04:25.390Z,99.90
2019-05-03T06:07:15.745Z,99.90
2019-05-03T06:10:07.704Z,99.90
2019-05-03T06:12:51.203Z,99.90
2019-05-03T06:15:44.752Z,99.90
2019-05-03T06:18:19.526Z,99.90
2019-05-03T06:21:07.559Z,99.90
2019-05-03T06:23:41.994Z,99.90
2019-05-03T06:26:29.240Z,99.90
2019-05-03T06:28:59.557Z,99.90
2019-05-03T06:31:36.135Z,99.90
2019-05-03T06:34:05.563Z,99.90
2019-05-03T06:36:35.489Z,99.90
2019-05-03T06:39:08.410Z,99.90
2019-05-03T06:41:38.000Z,99.90
2019-05-03T06:44:07.441Z,99.90
2019-05-03T06:46:45.564Z,99.90
2019-05-03T06:49:15.673Z,99.90
2019-05-03T06:51:49.483Z,99.90
2019-05-03T06:54:20.516Z,99.90
2019-05-03T06:56:47.923Z,99.90
2019-05-03T06:59:28.609Z,99.90
2019-05-03T07:02:14.835Z,99.90
2019-05-03T07:04:49.141Z,99.90
2019-05-03T07:07:35.531Z,99.90
2019-05-03T07:10:27.533Z,99.90
2019-05-03T07:13:01.660Z,99.90
2019-05-03T07:15:31.941Z,99.90
2019-05-03T07:18:01.553Z,99.90
2019-05-03T07:20:44.557Z,99.90
2019-05-03T07:23:15.597Z,99.90
2019-05-03T07:25:45.423Z,99.90
2019-05-03T07:28:15.209Z,99.90
2019-05-03T07:30:45.462Z,99.90
2019-05-03T07:33:25.431Z,99.90
2019-05-03T07:35:55.976Z,99.90
2019-05-03T07:38:26.071Z,99.90
2019-05-03T07:40:55.818Z,99.90
2019-05-03T07:43:25.279Z,99.90
2019-05-03T07:45:55.305Z,99.90
2019-05-03T07:48:25.627Z,99.90
2019-05-03T07:50:55.052Z,99.90
2019-05-03T07:53:25.163Z,99.90
2019-05-03T07:56:05.214Z,99.90
2019-05-03T07:58:35.305Z,99.90
2019-05-03T08:01:09.897Z,99.90
2019-05-03T08:03:39.650Z,99.90
2019-05-03T08:06:09.418Z,99.90
2019-05-03T08:08:38.852Z,99.90
2019-05-03T08:11:08.312Z,99.90
2019-05-03T08:13:38.034Z,99.90
2019-05-03T08:16:07.658Z,99.90
2019-05-03T08:18:37.100Z,99.90
2019-05-03T08:21:06.758Z,99.90
2019-05-03T08:23:36.239Z,99.90
2019-05-03T08:26:06.195Z,99.90
2019-05-03T08:28:35.786Z,99.90
2019-05-03T08:31:15.219Z,99.90
2019-05-03T08:33:56.674Z,99.90
2019-05-03T08:36:26.409Z,99.90
2019-05-03T08:38:56.344Z,99.90
2019-05-03T08:41:28.281Z,99.90
2019-05-03T08:43:57.917Z,99.90
2019-05-03T08:46:27.341Z,99.90
2019-05-03T08:48:56.984Z,99.90
2019-05-03T08:51:26.638Z,99.90
2019-05-03T08:53:59.166Z,99.90
2019-05-03T08:56:29.099Z,99.90
2019-05-03T08:58:58.569Z,99.90
2019-05-03T09:01:28.356Z,99.90
2019-05-03T09:03:59.896Z,99.90
2019-05-03T09:06:29.327Z,99.90
2019-05-03T09:08:59.141Z,99.90
2019-05-03T09:11:33.965Z,99.90
2019-05-03T09:14:04.596Z,99.90
2019-05-03T09:16:35.575Z,99.90
2019-05-03T09:19:05.683Z,99.90
2019-05-03T09:21:35.304Z,99.90
2019-05-03T09:24:05.358Z,99.90
2019-05-03T09:26:35.034Z,99.90
2019-05-03T09:29:07.584Z,99.90
2019-05-03T09:31:37.072Z,99.90
2019-05-03T09:34:08.303Z,99.90
2019-05-03T09:36:37.982Z,99.90
2019-05-03T09:39:08.538Z,95.50
2019-05-03T09:41:38.440Z,92.30
2019-05-03T09:44:07.914Z,96.00
2019-05-03T09:46:37.375Z,94.30
2019-05-03T09:49:12.772Z,84.70
2019-05-03T09:51:38.273Z,75.30
2019-05-03T09:54:34.698Z,74.80
2019-05-03T09:57:05.854Z,71.70
2019-05-03T09:59:35.344Z,69.90
2019-05-03T10:02:05.591Z,72.20
2019-05-03T10:04:36.663Z,67.80
2019-05-03T10:07:06.722Z,67.70
2019-05-03T10:09:36.205Z,66.80
2019-05-03T10:12:08.773Z,66.40
2019-05-03T10:14:38.176Z,64.30
2019-05-03T10:17:26.848Z,68.40
2019-05-03T10:19:56.582Z,71.20
2019-05-03T10:22:29.190Z,71.60
2019-05-03T10:24:59.108Z,63.80
2019-05-03T10:27:30.364Z,63.20
2019-05-03T10:30:12.365Z,64.10
2019-05-03T10:32:44.846Z,67.20
2019-05-03T10:35:15.235Z,66.70
2019-05-03T10:37:45.414Z,60.30
2019-05-03T10:40:17.932Z,62.30
2019-05-03T10:42:47.440Z,63.90
2019-05-03T10:45:17.623Z,62.90
2019-05-03T10:47:47.095Z,66.60
2019-05-03T10:50:16.947Z,67.30
2019-05-03T10:52:51.127Z,69.30
2019-05-03T10:55:20.603Z,65.70
2019-05-03T10:58:07.974Z,64.50
2019-05-03T11:00:45.148Z,65.70
2019-05-03T11:03:10.352Z,65.80
2019-05-03T11:05:40.656Z,67.40
2019-05-03T11:08:10.153Z,68.60
2019-05-03T11:10:43.703Z,68.10
2019-05-03T11:13:15.298Z,69.60
2019-05-03T11:15:44.519Z,67.70
2019-05-03T11:18:14.760Z,64.90
2019-05-03T11:20:45.276Z,64.60
2019-05-03T11:23:15.083Z,62.60
2019-05-03T11:25:45.217Z,58.10
2019-05-03T11:28:24.955Z,56.80
2019-05-03T11:31:01.326Z,55.50
2019-05-03T11:33:38.553Z,52.50
2019-05-03T11:36:15.414Z,50.70
2019-05-03T11:38:46.547Z,52.30
2019-05-03T11:41:29.188Z,53.30
2019-05-03T11:43:47.743Z,55.30
2019-05-03T11:46:17.234Z,53.80
2019-05-03T11:48:47.038Z,55.10
2019-05-03T11:51:16.488Z,55.20
2019-05-03T11:53:45.969Z,53.10
2019-05-03T11:56:15.534Z,51.80
2019-05-03T11:58:45.703Z,50.10
2019-05-03T12:01:36.983Z,49.20
2019-05-03T12:04:06.489Z,48.70
2019-05-03T12:06:36.787Z,48.40
2019-05-03T12:09:07.365Z,49.50
2019-05-03T12:11:38.436Z,52.10
2019-05-03T12:14:12.459Z,52.20
2019-05-03T12:17:17.269Z,53.20
2019-05-03T12:19:20.762Z,53.00
2019-05-03T12:21:49.604Z,54.40
2019-05-03T12:24:20.600Z,54.60
2019-05-03T12:26:50.363Z,51.40
2019-05-03T12:29:20.441Z,49.00
2019-05-03T12:31:49.956Z,48.00
2019-05-03T12:34:19.535Z,47.10
2019-05-03T12:36:51.250Z,49.10
2019-05-03T12:39:26.834Z,48.00
2019-05-03T12:41:51.776Z,50.00
2019-05-03T12:44:24.610Z,52.00
2019-05-03T12:46:54.687Z,53.90
2019-05-03T12:49:24.944Z,54.10
2019-05-03T12:51:55.820Z,54.90
2019-05-03T12:54:25.468Z,53.20
2019-05-03T12:56:56.044Z,49.40
2019-05-03T12:59:45.028Z,47.70
2019-05-03T13:02:20.732Z,45.70
2019-05-03T13:04:52.105Z,48.70
2019-05-03T13:07:30.697Z,48.70
2019-05-03T13:10:00.726Z,47.70
2019-05-03T13:12:31.128Z,45.60
2019-05-03T13:15:05.065Z,44.60
2019-05-03T13:17:38.275Z,44.70
2019-05-03T13:20:10.648Z,45.90
2019-05-03T13:22:40.150Z,47.00
2019-05-03T13:25:10.787Z,46.40
2019-05-03T13:27:40.286Z,44.90
2019-05-03T13:30:10.573Z,44.40
2019-05-03T13:32:40.246Z,44.80
2019-05-03T13:35:09.852Z,48.00
2019-05-03T13:37:39.326Z,49.10
2019-05-03T13:40:09.111Z,50.10
2019-05-03T13:42:39.190Z,51.00
2019-05-03T13:45:08.846Z,51.60
2019-05-03T13:47:40.294Z,52.60
2019-05-03T13:50:10.137Z,54.10
2019-05-03T13:52:39.906Z,54.30
2019-05-03T13:55:09.687Z,53.10
2019-05-03T13:57:39.190Z,51.30
2019-05-03T14:00:08.932Z,53.30
2019-05-03T14:02:38.420Z,53.30
2019-05-03T14:05:09.014Z,52.30
2019-05-03T14:07:38.430Z,51.10
2019-05-03T14:10:08.404Z,51.00
2019-05-03T14:12:37.826Z,49.50
2019-05-03T14:15:08.748Z,48.30
2019-05-03T14:17:38.208Z,48.10
2019-05-03T14:20:14.842Z,49.20
2019-05-03T14:22:45.482Z,49.40
2019-05-03T14:25:15.234Z,50.00
2019-05-03T14:27:45.585Z,50.80
2019-05-03T14:30:15.613Z,50.20
2019-05-03T14:32:45.394Z,51.30
2019-05-03T14:35:16.314Z,51.90
2019-05-03T14:37:46.027Z,53.10
2019-05-03T14:40:15.781Z,48.80
2019-05-03T14:42:45.193Z,45.90
2019-05-03T14:45:15.187Z,45.90
2019-05-03T14:47:44.692Z,45.10
2019-05-03T14:50:15.060Z,47.00
2019-05-03T14:52:45.537Z,47.80
2019-05-03T14:55:25.247Z,49.40
2019-05-03T14:58:06.494Z,51.40
2019-05-03T15:00:45.150Z,51.40
2019-05-03T15:03:18.088Z,51.70
2019-05-03T15:05:47.713Z,52.00
2019-05-03T15:08:17.115Z,51.50
2019-05-03T15:10:46.571Z,52.00
2019-05-03T15:13:16.056Z,50.70
2019-05-03T15:15:45.512Z,53.10
2019-05-03T15:18:15.054Z,53.50
2019-05-03T15:20:45.307Z,53.20
2019-05-03T15:23:15.055Z,52.80
2019-05-03T15:25:45.253Z,54.20
2019-05-03T15:28:14.804Z,54.30
2019-05-03T15:30:44.558Z,53.10
2019-05-03T15:33:15.124Z,53.50
2019-05-03T15:35:46.616Z,53.80
2019-05-03T15:38:16.192Z,54.20
2019-05-03T15:40:46.338Z,54.20
2019-05-03T15:43:28.943Z,55.00
2019-05-03T15:46:14.592Z,55.40
2019-05-03T15:48:55.690Z,54.70
2019-05-03T15:51:25.120Z,54.60
2019-05-03T15:53:55.177Z,54.60
2019-05-03T15:56:26.839Z,55.20
2019-05-03T15:58:55.994Z,56.60
2019-05-03T16:01:25.544Z,56.90
2019-05-03T16:03:55.590Z,56.10
2019-05-03T16:06:25.301Z,55.90
2019-05-03T16:08:55.310Z,55.00
2019-05-03T16:11:25.482Z,56.10
2019-05-03T16:13:55.463Z,55.80
2019-05-03T16:16:25.082Z,55.40
2019-05-03T16:18:54.869Z,53.80
2019-05-03T16:21:25.191Z,54.60
2019-05-03T16:23:56.173Z,54.30
2019-05-03T16:26:25.623Z,54.20
2019-05-03T16:29:04.707Z,54.20
2019-05-03T16:31:34.535Z,55.00
2019-05-03T16:34:04.271Z,55.70
2019-05-03T16:36:34.642Z,56.00
2019-05-03T16:39:07.514Z,55.30
2019-05-03T16:41:36.936Z,55.70
2019-05-03T16:44:06.435Z,56.20
2019-05-03T16:46:35.872Z,55.60
2019-05-03T16:49:06.530Z,56.60
2019-05-03T16:51:36.153Z,56.80
2019-05-03T16:54:05.673Z,57.00
2019-05-03T16:56:35.426Z,57.50
2019-05-03T16:59:05.758Z,57.70
2019-05-03T17:01:35.407Z,58.30
2019-05-03T17:04:34.558Z,58.00
2019-05-03T17:07:32.158Z,57.70
2019-05-03T17:10:25.419Z,57.90
2019-05-03T17:12:56.856Z,58.50
2019-05-03T17:15:25.679Z,59.10
2019-05-03T17:17:55.180Z,59.80
2019-05-03T17:20:25.897Z,59.50
2019-05-03T17:22:55.587Z,60.00
2019-05-03T17:25:25.047Z,60.80
2019-05-03T17:27:54.524Z,61.00
2019-05-03T17:30:32.670Z,62.30
2019-05-03T17:32:55.166Z,62.20
2019-05-03T17:35:25.142Z,63.50
2019-05-03T17:37:54.734Z,64.80
2019-05-03T17:40:35.752Z,65.70
2019-05-03T17:43:36.196Z,67.30
2019-05-03T17:46:06.748Z,68.50
2019-05-03T17:48:36.262Z,69.10
2019-05-03T17:51:05.729Z,68.30
2019-05-03T17:53:54.825Z,70.30
2019-05-03T17:56:44.512Z,70.70
2019-05-03T17:59:24.468Z,73.80
2019-05-03T18:02:16.043Z,75.00
2019-05-03T18:04:54.966Z,77.50
2019-05-03T18:07:58.595Z,80.80
2019-05-03T18:10:28.961Z,82.70
2019-05-03T18:12:58.445Z,84.60
2019-05-03T18:15:27.903Z,86.20
2019-05-03T18:17:57.396Z,82.40
2019-05-03T18:20:28.686Z,83.80
2019-05-03T18:22:58.156Z,88.90
2019-05-03T18:25:27.675Z,90.00
2019-05-03T18:27:57.141Z,91.10
2019-05-03T18:30:26.648Z,89.70
2019-05-03T18:32:56.050Z,88.80
2019-05-03T18:35:25.755Z,90.80
2019-05-03T18:37:59.034Z,91.40
2019-05-03T18:40:30.362Z,92.60
2019-05-03T18:43:05.063Z,93.00
2019-05-03T18:45:52.127Z,94.10
2019-05-03T18:48:24.455Z,91.60
2019-05-03T18:50:54.743Z,90.20
2019-05-03T18:53:25.193Z,90.40
2019-05-03T18:55:55.200Z,89.90
2019-05-03T18:58:24.597Z,90.30
2019-05-03T19:00:54.891Z,89.40
2019-05-03T19:03:25.164Z,89.90
2019-05-03T19:05:58.858Z,90.60
2019-05-03T19:08:44.737Z,90.60
2019-05-03T19:11:24.506Z,91.60
2019-05-03T19:13:57.330Z,91.60
2019-05-03T19:16:48.844Z,94.20
2019-05-03T19:19:20.092Z,96.30
2019-05-03T19:21:49.618Z,99.90
2019-05-03T19:24:19.092Z,99.90
2019-05-03T19:26:48.567Z,99.90
2019-05-03T19:29:18.170Z,99.90
2019-05-03T19:31:47.801Z,99.90
2019-05-03T19:34:17.662Z,99.90
2019-05-03T19:36:47.134Z,99.90
2019-05-03T19:39:16.682Z,99.90
2019-05-03T19:41:46.390Z,99.90
2019-05-03T19:44:16.245Z,99.90
2019-05-03T19:46:45.836Z,99.90
2019-05-03T19:49:15.414Z,99.90
2019-05-03T19:51:45.195Z,99.90
2019-05-03T19:54:14.783Z,99.90
2019-05-03T19:56:46.883Z,99.90
2019-05-03T19:59:35.397Z,99.90
2019-05-03T20:02:18.591Z,99.90
2019-05-03T20:05:09.996Z,99.90
2019-05-03T20:07:57.385Z,99.90
2019-05-03T20:10:26.868Z,99.90
2019-05-03T20:12:56.345Z,99.90
2019-05-03T20:15:25.810Z,99.90
2019-05-03T20:17:59.939Z,99.90
2019-05-03T20:20:26.669Z,99.90
2019-05-03T20:22:58.933Z,99.90
2019-05-03T20:25:28.069Z,99.90
2019-05-03T20:27:57.598Z,99.90
2019-05-03T20:30:27.295Z,99.90
2019-05-03T20:32:56.746Z,99.90
2019-05-03T20:35:26.231Z,99.90
2019-05-03T20:37:55.947Z,99.90
2019-05-03T20:40:25.716Z,99.90
2019-05-03T20:43:25.660Z,99.90
2019-05-03T20:46:15.078Z,99.90
2019-05-03T20:48:47.197Z,99.90
2019-05-03T20:51:16.792Z,99.90
2019-05-03T20:53:48.345Z,99.90
2019-05-03T20:56:18.263Z,99.90
2019-05-03T20:58:47.739Z,99.90
2019-05-03T21:01:17.618Z,99.90
2019-05-03T21:03:47.113Z,99.90
2019-05-03T21:06:16.812Z,99.90
2019-05-03T21:08:52.454Z,99.90
2019-05-03T21:11:18.578Z,99.90
2019-05-03T21:13:48.026Z,99.90
2019-05-03T21:16:31.438Z,99.90
2019-05-03T21:19:13.963Z,99.90
2019-05-03T21:21:47.243Z,99.90
2019-05-03T21:24:29.051Z,99.90
2019-05-03T21:26:58.469Z,99.90
2019-05-03T21:29:28.006Z,99.90
2019-05-03T21:31:57.450Z,99.90
2019-05-03T21:34:27.141Z,99.90
2019-05-03T21:36:56.632Z,99.90
2019-05-03T21:39:27.029Z,99.90
2019-05-03T21:41:57.175Z,99.90
2019-05-03T21:44:34.147Z,99.90
2019-05-03T21:47:12.919Z,99.90
2019-05-03T21:49:44.327Z,99.90
2019-05-03T21:52:14.706Z,99.90
2019-05-03T21:54:51.754Z,99.90
2019-05-03T21:57:21.432Z,99.90
2019-05-03T21:59:50.868Z,99.90
2019-05-03T22:02:24.654Z,99.90
2019-05-03T22:04:55.270Z,99.90
2019-05-03T22:07:26.846Z,99.90
2019-05-03T22:09:56.388Z,99.90
2019-05-03T22:12:25.810Z,99.90
2019-05-03T22:15:02.278Z,99.90
2019-05-03T22:17:49.304Z,99.90
2019-05-03T22:20:30.839Z,99.90
2019-05-03T22:23:14.957Z,99.90
2019-05-03T22:25:45.314Z,99.90
2019-05-03T22:28:15.570Z,99.90
2019-05-03T22:30:45.378Z,99.90
2019-05-03T22:33:14.958Z,99.90
2019-05-03T22:35:44.558Z,99.90
2019-05-03T22:38:14.171Z,99.90
2019-05-03T22:40:44.267Z,99.90
2019-05-03T22:43:14.776Z,99.90
2019-05-03T22:45:45.610Z,99.90
2019-05-03T22:48:15.076Z,99.90
2019-05-03T22:50:44.882Z,99.90
2019-05-03T22:53:14.818Z,99.90
2019-05-03T22:55:45.133Z,99.90
2019-05-03T22:58:15.369Z,99.90
2019-05-03T23:00:44.988Z,99.90
2019-05-03T23:03:15.004Z,99.90
2019-05-03T23:05:45.603Z,99.90
2019-05-03T23:08:15.244Z,99.90
2019-05-03T23:10:45.129Z,99.90
2019-05-03T23:13:15.413Z,99.90
2019-05-03T23:15:45.232Z,99.90
2019-05-03T23:18:14.682Z,99.90
2019-05-03T23:20:55.242Z,99.90
2019-05-03T23:23:47.324Z,99.90
2019-05-03T23:26:16.789Z,99.90
2019-05-03T23:28:46.430Z,99.90
2019-05-03T23:31:16.023Z,99.90
2019-05-03T23:33:45.487Z,99.90
2019-05-03T23:36:16.499Z,99.90
2019-05-03T23:38:46.374Z,99.90
2019-05-03T23:41:15.801Z,99.90
2019-05-03T23:43:45.833Z,99.90
2019-05-03T23:46:17.043Z,99.90
2019-05-03T23:48:46.514Z,99.90
2019-05-03T23:51:35.059Z,99.90
2019-05-03T23:54:05.615Z,99.90
2019-05-03T23:56:35.663Z,99.90
2019-05-03T23:59:05.602Z,99.90
